createdAt,value
2019-05-16T00:01:30.194Z,49.30
2019-05-16T00:04:17.865Z,49.00
2019-05-16T00:07:04.972Z,48.80
2019-05-16T00:09:52.156Z,48.90
2019-05-16T00:12:40.127Z,49.30
2019-05-16T00:15:28.669Z,48.70
2019-05-16T00:18:17.856Z,49.10
2019-05-16T00:21:05.217Z,49.60
2019-05-16T00:23:51.429Z,50.00
2019-05-16T00:26:38.931Z,50.30
2019-05-16T00:29:27.718Z,50.50
2019-05-16T00:32:14.530Z,50.30
2019-05-16T00:35:01.604Z,50.10
2019-05-16T00:37:48.825Z,50.00
2019-05-16T00:40:38.034Z,49.60
2019-05-16T00:43:24.888Z,49.70
2019-05-16T00:46:11.703Z,50.00
2019-05-16T00:48:59.050Z,50.00
2019-05-16T00:51:48.023Z,50.10
2019-05-16T00:54:34.944Z,50.50
2019-05-16T00:57:22.177Z,49.90
2019-05-16T01:00:11.704Z,50.50
2019-05-16T01:02:58.939Z,50.20
2019-05-16T01:05:47.988Z,50.40
2019-05-16T01:08:35.057Z,50.40
2019-05-16T01:11:22.568Z,50.70
2019-05-16T01:14:09.683Z,50.50
2019-05-16T01:16:58.138Z,50.50
2019-05-16T01:19:45.696Z,50.50
2019-05-16T01:22:33.149Z,50.80
2019-05-16T01:25:20.282Z,50.80
2019-05-16T01:28:08.859Z,50.90
2019-05-16T01:30:58.017Z,51.10
2019-05-16T01:33:44.969Z,51.00
2019-05-16T01:36:36.722Z,51.40
2019-05-16T01:39:20.886Z,51.60
2019-05-16T01:42:08.161Z,52.10
2019-05-16T01:44:55.036Z,52.30
2019-05-16T01:47:42.301Z,52.50
2019-05-16T01:50:28.482Z,53.40
2019-05-16T01:53:17.666Z,53.90
2019-05-16T01:56:04.812Z,54.70
2019-05-16T01:58:50.997Z,54.80
2019-05-16T02:01:37.897Z,55.10
2019-05-16T02:04:25.320Z,55.60
2019-05-16T02:07:12.287Z,56.20
2019-05-16T02:09:59.208Z,56.40
2019-05-16T02:12:48.804Z,56.70
2019-05-16T02:15:35.386Z,57.60
2019-05-16T02:18:22.612Z,57.10
2019-05-16T02:21:09.923Z,57.70
2019-05-16T02:23:58.509Z,57.60
2019-05-16T02:26:45.895Z,57.70
2019-05-16T02:29:33.026Z,58.40
2019-05-16T02:32:22.317Z,58.60
2019-05-16T02:35:11.699Z,58.20
2019-05-16T02:38:01.028Z,59.70
2019-05-16T02:40:54.437Z,59.40
2019-05-16T02:43:36.529Z,59.90
2019-05-16T02:46:23.882Z,59.20
2019-05-16T02:49:11.704Z,60.20
2019-05-16T02:52:01.431Z,59.90
2019-05-16T02:54:51.546Z,59.80
2019-05-16T02:57:37.148Z,59.40
2019-05-16T03:00:35.391Z,59.30
2019-05-16T03:03:22.487Z,59.10
2019-05-16T03:06:11.281Z,59.30
2019-05-16T03:09:04.723Z,59.30
2019-05-16T03:11:51.004Z,59.10
2019-05-16T03:14:41.709Z,59.40
2019-05-16T03:17:31.769Z,59.00
2019-05-16T03:20:21.051Z,59.00
2019-05-16T03:23:07.440Z,58.60
2019-05-16T03:25:53.591Z,58.30
2019-05-16T03:28:41.438Z,57.10
2019-05-16T03:31:33.669Z,57.20
2019-05-16T03:34:24.734Z,58.10
2019-05-16T03:37:06.404Z,58.00
2019-05-16T03:39:53.213Z,57.70
2019-05-16T03:42:41.683Z,57.70
2019-05-16T03:45:31.521Z,56.90
2019-05-16T03:48:20.981Z,56.80
2019-05-16T03:51:06.599Z,56.80
2019-05-16T03:53:53.629Z,56.50
2019-05-16T03:56:40.961Z,56.60
2019-05-16T03:59:31.210Z,56.40
2019-05-16T04:02:16.925Z,55.90
2019-05-16T04:05:03.463Z,56.40
2019-05-16T04:07:53.045Z,55.30
2019-05-16T04:10:40.935Z,55.30
2019-05-16T04:13:31.096Z,55.50
2019-05-16T04:16:20.713Z,55.30
2019-05-16T04:19:06.156Z,54.90
2019-05-16T04:21:52.220Z,55.20
2019-05-16T04:24:41.599Z,55.40
2019-05-16T04:27:30.905Z,55.50
2019-05-16T04:30:17.103Z,55.90
2019-05-16T04:33:04.301Z,56.30
2019-05-16T04:35:52.889Z,56.20
2019-05-16T04:38:46.024Z,56.20
2019-05-16T04:41:31.297Z,56.70
2019-05-16T04:44:21.040Z,55.40
2019-05-16T04:47:06.882Z,55.30
2019-05-16T04:49:54.328Z,55.40
2019-05-16T04:52:42.173Z,55.40
2019-05-16T04:55:31.600Z,55.70
2019-05-16T04:58:22.575Z,55.80
2019-05-16T05:01:06.601Z,55.40
2019-05-16T05:04:08.842Z,55.20
2019-05-16T05:06:42.624Z,55.20
2019-05-16T05:09:31.711Z,55.60
2019-05-16T05:12:20.786Z,55.60
2019-05-16T05:15:11.157Z,54.80
2019-05-16T05:17:57.301Z,54.20
2019-05-16T05:20:43.888Z,53.20
2019-05-16T05:23:31.002Z,53.20
2019-05-16T05:26:17.120Z,54.00
2019-05-16T05:29:03.969Z,53.80
2019-05-16T05:31:54.996Z,54.00
2019-05-16T05:34:39.834Z,53.30
2019-05-16T05:37:26.373Z,53.20
2019-05-16T05:40:12.540Z,53.00
2019-05-16T05:42:59.888Z,52.40
2019-05-16T05:45:47.228Z,53.00
2019-05-16T05:48:33.812Z,52.50
2019-05-16T05:51:20.720Z,52.50
2019-05-16T05:54:07.882Z,52.80
2019-05-16T05:56:55.057Z,51.80
2019-05-16T05:59:41.176Z,51.80
2019-05-16T06:02:30.809Z,51.40
2019-05-16T06:05:16.753Z,51.00
2019-05-16T06:08:03.861Z,49.20
2019-05-16T06:10:51.015Z,49.90
2019-05-16T06:13:40.279Z,49.20
2019-05-16T06:16:26.781Z,50.70
2019-05-16T06:19:13.932Z,52.30
2019-05-16T06:22:01.363Z,56.80
2019-05-16T06:24:50.490Z,55.80
2019-05-16T06:27:37.012Z,54.00
2019-05-16T06:30:23.926Z,53.30
2019-05-16T06:33:10.891Z,54.70
2019-05-16T06:36:00.090Z,52.40
2019-05-16T06:38:46.400Z,52.60
2019-05-16T06:41:33.010Z,51.60
2019-05-16T06:44:20.273Z,49.50
2019-05-16T06:47:17.072Z,50.00
2019-05-16T06:49:55.661Z,48.20
2019-05-16T06:52:45.686Z,48.10
2019-05-16T06:55:31.386Z,46.60
2019-05-16T06:58:21.783Z,45.90
2019-05-16T07:01:09.710Z,47.40
2019-05-16T07:03:56.898Z,47.60
2019-05-16T07:06:56.125Z,46.10
2019-05-16T07:09:32.615Z,45.80
2019-05-16T07:12:20.257Z,45.20
2019-05-16T07:15:11.909Z,43.60
2019-05-16T07:17:55.975Z,43.70
2019-05-16T07:20:43.069Z,43.60
2019-05-16T07:23:29.832Z,43.80
2019-05-16T07:26:17.232Z,43.70
2019-05-16T07:29:03.825Z,42.00
2019-05-16T07:31:52.271Z,42.10
2019-05-16T07:34:40.346Z,41.10
2019-05-16T07:37:27.312Z,42.20
2019-05-16T07:40:19.575Z,42.10
2019-05-16T07:43:02.844Z,39.70
2019-05-16T07:45:51.304Z,41.20
2019-05-16T07:48:40.340Z,40.70
2019-05-16T07:51:27.967Z,41.10
2019-05-16T07:54:14.017Z,40.30
2019-05-16T07:57:11.477Z,37.90
2019-05-16T07:59:50.700Z,40.00
2019-05-16T08:02:40.271Z,41.30
2019-05-16T08:05:27.038Z,39.50
2019-05-16T08:08:14.644Z,39.90
2019-05-16T08:11:01.872Z,39.20
2019-05-16T08:13:50.736Z,39.90
2019-05-16T08:16:40.546Z,39.90
2019-05-16T08:19:26.989Z,40.70
2019-05-16T08:22:14.353Z,40.60
2019-05-16T08:25:01.523Z,41.30
2019-05-16T08:27:51.951Z,41.00
2019-05-16T08:30:41.200Z,41.50
2019-05-16T08:33:27.305Z,44.10
2019-05-16T08:36:14.932Z,42.10
2019-05-16T08:39:01.848Z,41.00
2019-05-16T08:41:52.070Z,41.10
2019-05-16T08:44:41.564Z,41.20
2019-05-16T08:47:26.653Z,40.80
2019-05-16T08:50:14.914Z,41.20
2019-05-16T08:53:02.930Z,42.60
2019-05-16T08:55:50.505Z,42.80
2019-05-16T08:58:40.836Z,43.70
2019-05-16T09:01:26.308Z,41.40
2019-05-16T09:04:13.594Z,40.80
2019-05-16T09:07:01.952Z,40.50
2019-05-16T09:09:53.048Z,42.20
2019-05-16T09:12:38.026Z,42.00
2019-05-16T09:15:27.252Z,41.00
2019-05-16T09:18:17.581Z,42.10
2019-05-16T09:21:03.413Z,42.80
2019-05-16T09:23:49.466Z,42.50
2019-05-16T09:26:38.282Z,42.70
2019-05-16T09:29:27.328Z,43.20
2019-05-16T09:32:17.976Z,42.20
2019-05-16T09:35:02.967Z,42.80
2019-05-16T09:37:50.365Z,43.70
2019-05-16T09:40:38.902Z,41.60
2019-05-16T09:43:28.121Z,42.60
2019-05-16T09:46:16.954Z,40.90
2019-05-16T09:49:16.795Z,42.00
2019-05-16T09:51:52.140Z,42.00
2019-05-16T09:54:39.361Z,41.20
2019-05-16T09:57:27.818Z,40.60
2019-05-16T10:00:18.078Z,41.60
2019-05-16T10:03:07.091Z,41.00
2019-05-16T10:05:54.573Z,40.50
2019-05-16T10:08:42.882Z,40.10
2019-05-16T10:11:31.319Z,41.20
2019-05-16T10:14:18.008Z,40.10
2019-05-16T10:17:04.888Z,40.70
2019-05-16T10:19:51.754Z,42.40
2019-05-16T10:22:38.779Z,40.10
2019-05-16T10:25:27.732Z,40.70
2019-05-16T10:28:17.418Z,42.90
2019-05-16T10:31:06.730Z,42.20
2019-05-16T10:33:53.434Z,45.50
2019-05-16T10:36:40.497Z,42.50
2019-05-16T10:39:27.634Z,43.60
2019-05-16T10:42:27.154Z,43.30
2019-05-16T10:45:04.960Z,42.00
2019-05-16T10:47:52.300Z,42.00
2019-05-16T10:50:39.626Z,44.50
2019-05-16T10:53:52.328Z,43.20
2019-05-16T10:56:16.020Z,44.00
2019-05-16T10:59:37.824Z,44.30
2019-05-16T11:01:52.071Z,44.30
2019-05-16T11:04:53.735Z,45.20
2019-05-16T11:07:29.766Z,45.90
2019-05-16T11:10:17.687Z,44.70
2019-05-16T11:13:07.878Z,45.30
2019-05-16T11:15:54.108Z,41.90
2019-05-16T11:18:41.082Z,43.80
2019-05-16T11:21:28.392Z,41.90
2019-05-16T11:24:15.478Z,39.40
2019-05-16T11:27:02.649Z,40.10
2019-05-16T11:29:49.597Z,41.40
2019-05-16T11:32:37.479Z,44.00
2019-05-16T11:35:26.978Z,43.10
2019-05-16T11:38:13.288Z,36.60
2019-05-16T11:41:00.431Z,37.90
2019-05-16T11:43:47.572Z,41.20
2019-05-16T11:46:37.234Z,42.60
2019-05-16T11:49:22.833Z,39.50
2019-05-16T11:52:09.458Z,40.50
2019-05-16T11:54:57.154Z,40.00
2019-05-16T11:57:44.207Z,37.00
2019-05-16T12:00:32.045Z,37.50
2019-05-16T12:03:19.491Z,40.00
2019-05-16T12:06:10.818Z,37.80
2019-05-16T12:08:55.559Z,36.20
2019-05-16T12:11:42.512Z,38.30
2019-05-16T12:14:29.577Z,36.60
2019-05-16T12:17:16.794Z,40.70
2019-05-16T12:20:07.654Z,37.40
2019-05-16T12:22:53.545Z,37.40
2019-05-16T12:25:40.556Z,36.50
2019-05-16T12:28:28.208Z,38.80
2019-05-16T12:31:37.358Z,40.20
2019-05-16T12:34:24.174Z,40.70
2019-05-16T12:37:11.109Z,41.80
2019-05-16T12:39:58.301Z,41.40
2019-05-16T12:42:47.176Z,41.80
2019-05-16T12:45:34.963Z,42.30
2019-05-16T12:48:22.032Z,42.10
2019-05-16T12:51:09.245Z,42.80
2019-05-16T12:53:57.198Z,43.10
2019-05-16T12:56:44.627Z,43.10
2019-05-16T12:59:32.044Z,42.80
2019-05-16T13:02:21.721Z,42.60
2019-05-16T13:05:09.688Z,43.10
2019-05-16T13:07:57.256Z,42.00
2019-05-16T13:10:46.815Z,41.80
2019-05-16T13:13:32.795Z,43.90
2019-05-16T13:16:20.002Z,44.00
2019-05-16T13:19:07.047Z,44.60
2019-05-16T13:21:54.396Z,45.70
2019-05-16T13:24:41.620Z,44.70
2019-05-16T13:27:29.089Z,46.00
2019-05-16T13:30:18.170Z,47.70
2019-05-16T13:33:07.337Z,46.40
2019-05-16T13:35:54.403Z,46.80
2019-05-16T13:38:41.373Z,46.70
2019-05-16T13:41:28.429Z,48.10
2019-05-16T13:44:19.949Z,47.80
2019-05-16T13:47:03.818Z,46.90
2019-05-16T13:49:50.781Z,47.30
2019-05-16T13:52:37.685Z,49.00
2019-05-16T13:55:27.151Z,49.40
2019-05-16T13:58:13.669Z,49.80
2019-05-16T14:01:00.673Z,50.40
2019-05-16T14:03:48.861Z,53.50
2019-05-16T14:06:36.860Z,50.70
2019-05-16T14:09:26.715Z,50.70
2019-05-16T14:12:12.667Z,52.90
2019-05-16T14:14:59.616Z,53.00
2019-05-16T14:17:48.916Z,53.10
2019-05-16T14:20:37.652Z,54.10
2019-05-16T14:23:24.654Z,53.20
2019-05-16T14:26:13.399Z,53.80
2019-05-16T14:29:00.661Z,53.20
2019-05-16T14:31:47.595Z,55.10
2019-05-16T14:34:34.636Z,54.30
2019-05-16T14:37:21.298Z,55.10
2019-05-16T14:40:08.991Z,55.50
2019-05-16T14:42:58.284Z,55.50
2019-05-16T14:45:46.642Z,56.70
2019-05-16T14:48:33.640Z,58.00
2019-05-16T14:51:19.581Z,57.40
2019-05-16T14:54:07.725Z,58.30
2019-05-16T14:57:00.265Z,58.90
2019-05-16T14:59:46.955Z,59.80
2019-05-16T15:02:34.160Z,59.90
2019-05-16T15:05:21.534Z,59.20
2019-05-16T15:08:09.019Z,60.60
2019-05-16T15:10:57.416Z,61.40
2019-05-16T15:13:44.613Z,62.10
2019-05-16T15:16:31.456Z,63.00
2019-05-16T15:19:18.138Z,64.80
2019-05-16T15:22:07.935Z,65.30
2019-05-16T15:24:59.026Z,67.60
2019-05-16T15:27:43.240Z,68.00
2019-05-16T15:30:30.380Z,68.60
2019-05-16T15:33:19.802Z,69.00
2019-05-16T15:36:08.973Z,69.60
2019-05-16T15:38:56.710Z,70.00
2019-05-16T15:41:44.813Z,68.70
2019-05-16T15:44:32.377Z,67.90
2019-05-16T15:47:19.048Z,67.10
2019-05-16T15:50:08.013Z,66.20
2019-05-16T15:52:58.905Z,66.00
2019-05-16T15:55:43.615Z,63.70
2019-05-16T15:58:30.260Z,64.70
2019-05-16T16:01:18.536Z,66.10
2019-05-16T16:04:07.021Z,67.00
2019-05-16T16:06:54.086Z,66.30
2019-05-16T16:09:40.789Z,67.10
2019-05-16T16:12:27.654Z,67.80
2019-05-16T16:15:13.745Z,68.50
2019-05-16T16:18:00.914Z,66.70
2019-05-16T16:20:48.003Z,66.30
2019-05-16T16:23:37.153Z,66.10
2019-05-16T16:26:23.657Z,66.50
2019-05-16T16:29:16.921Z,66.90
2019-05-16T16:32:06.341Z,66.30
2019-05-16T16:34:53.074Z,68.00
2019-05-16T16:37:40.384Z,69.00
2019-05-16T16:40:27.461Z,69.20
2019-05-16T16:43:14.702Z,69.20
2019-05-16T16:46:08.816Z,69.20
2019-05-16T16:48:50.824Z,70.40
2019-05-16T16:51:37.760Z,71.20
2019-05-16T16:54:27.408Z,72.20
2019-05-16T16:57:13.324Z,73.60
2019-05-16T17:00:00.304Z,74.20
2019-05-16T17:03:02.318Z,74.30
2019-05-16T17:05:37.227Z,75.50
2019-05-16T17:08:24.042Z,76.10
2019-05-16T17:11:11.203Z,76.20
2019-05-16T17:13:58.188Z,76.10
2019-05-16T17:16:47.315Z,75.90
2019-05-16T17:19:33.596Z,76.80
2019-05-16T17:22:20.998Z,77.30
2019-05-16T17:25:09.070Z,77.70
2019-05-16T17:27:57.274Z,77.50
2019-05-16T17:30:46.870Z,77.50
2019-05-16T17:33:32.922Z,77.00
2019-05-16T17:36:20.281Z,75.70
2019-05-16T17:39:07.785Z,76.40
2019-05-16T17:41:57.877Z,76.70
2019-05-16T17:44:44.090Z,76.50
2019-05-16T17:47:30.178Z,76.70
2019-05-16T17:50:18.192Z,76.30
2019-05-16T17:53:07.078Z,76.90
2019-05-16T17:55:54.021Z,77.50
2019-05-16T17:58:41.084Z,77.60
2019-05-16T18:01:28.424Z,78.10
2019-05-16T18:04:17.181Z,77.80
2019-05-16T18:07:04.314Z,77.30
2019-05-16T18:09:51.728Z,77.20
2019-05-16T18:12:39.342Z,77.70
2019-05-16T18:15:26.596Z,78.40
2019-05-16T18:18:13.805Z,78.20
2019-05-16T18:21:02.362Z,78.00
2019-05-16T18:23:49.618Z,78.40
2019-05-16T18:26:37.377Z,78.90
2019-05-16T18:29:26.794Z,78.10
2019-05-16T18:32:13.468Z,77.80
2019-05-16T18:35:00.753Z,77.40
2019-05-16T18:37:48.140Z,78.20
2019-05-16T18:40:36.480Z,79.00
2019-05-16T18:43:23.209Z,79.30
2019-05-16T18:46:10.661Z,79.20
2019-05-16T18:48:58.118Z,79.40
2019-05-16T18:51:46.495Z,79.20
2019-05-16T18:54:33.574Z,79.00
2019-05-16T18:57:20.834Z,79.60
2019-05-16T19:00:10.639Z,79.70
2019-05-16T19:02:59.371Z,80.50
2019-05-16T19:05:46.863Z,81.10
2019-05-16T19:08:33.871Z,81.80
2019-05-16T19:11:19.981Z,82.10
2019-05-16T19:14:07.681Z,82.40
2019-05-16T19:16:56.669Z,83.90
2019-05-16T19:19:43.651Z,86.00
2019-05-16T19:22:31.008Z,87.50
2019-05-16T19:25:18.539Z,89.30
2019-05-16T19:28:07.059Z,89.50
2019-05-16T19:30:57.014Z,90.00
2019-05-16T19:33:43.929Z,90.00
2019-05-16T19:36:30.725Z,90.50
2019-05-16T19:39:17.875Z,90.60
2019-05-16T19:42:06.506Z,91.00
2019-05-16T19:44:56.086Z,91.30
2019-05-16T19:47:43.365Z,91.10
2019-05-16T19:50:30.936Z,91.30
2019-05-16T19:53:18.147Z,91.90
2019-05-16T19:56:07.236Z,91.50
2019-05-16T19:58:54.291Z,91.30
2019-05-16T20:01:41.409Z,91.30
2019-05-16T20:04:28.856Z,91.10
2019-05-16T20:07:16.767Z,91.10
2019-05-16T20:10:09.604Z,91.20
2019-05-16T20:12:56.918Z,91.50
2019-05-16T20:15:44.373Z,91.10
2019-05-16T20:18:31.576Z,91.00
2019-05-16T20:21:18.759Z,91.00
2019-05-16T20:24:07.486Z,90.80
2019-05-16T20:26:56.971Z,90.80
2019-05-16T20:29:43.674Z,91.10
2019-05-16T20:32:31.616Z,91.20
2019-05-16T20:35:18.841Z,91.20
2019-05-16T20:38:06.871Z,91.30
2019-05-16T20:40:56.962Z,91.40
2019-05-16T20:43:43.779Z,91.50
2019-05-16T20:46:30.931Z,91.40
2019-05-16T20:49:18.356Z,91.10
2019-05-16T20:52:07.038Z,91.30
2019-05-16T20:54:57.255Z,91.70
2019-05-16T20:57:43.733Z,91.20
2019-05-16T21:00:31.096Z,91.30
2019-05-16T21:03:18.219Z,91.60
2019-05-16T21:06:08.558Z,91.20
2019-05-16T21:08:56.898Z,91.60
2019-05-16T21:11:43.663Z,91.70
2019-05-16T21:14:30.896Z,91.40
2019-05-16T21:17:17.994Z,91.80
2019-05-16T21:20:07.349Z,91.40
2019-05-16T21:22:56.492Z,91.60
2019-05-16T21:25:43.633Z,91.90
2019-05-16T21:28:30.700Z,92.10
2019-05-16T21:31:19.502Z,92.00
2019-05-16T21:34:07.148Z,91.50
2019-05-16T21:36:54.556Z,91.70
2019-05-16T21:39:42.031Z,91.80
2019-05-16T21:42:29.174Z,91.40
2019-05-16T21:45:16.557Z,91.50
2019-05-16T21:48:03.661Z,91.80
2019-05-16T21:50:50.771Z,91.90
2019-05-16T21:53:38.149Z,92.10
2019-05-16T21:56:26.607Z,92.10
2019-05-16T21:59:13.942Z,91.70
2019-05-16T22:02:01.097Z,91.80
2019-05-16T22:04:48.373Z,91.70
2019-05-16T22:07:36.456Z,91.60
2019-05-16T22:10:23.957Z,91.50
2019-05-16T22:13:12.725Z,91.50
2019-05-16T22:15:59.595Z,91.90
2019-05-16T22:18:47.411Z,91.90
2019-05-16T22:21:34.296Z,91.80
2019-05-16T22:24:20.376Z,91.60
2019-05-16T22:27:07.355Z,91.50
2019-05-16T22:29:53.484Z,91.70
2019-05-16T22:32:40.803Z,92.00
2019-05-16T22:35:27.744Z,92.10
2019-05-16T22:38:16.696Z,92.00
2019-05-16T22:41:02.948Z,91.90
2019-05-16T22:43:50.009Z,92.10
2019-05-16T22:46:37.223Z,91.90
2019-05-16T22:49:24.237Z,92.00
2019-05-16T22:52:10.352Z,91.90
2019-05-16T22:54:57.065Z,92.00
2019-05-16T22:57:43.199Z,91.90
2019-05-16T23:00:31.510Z,91.70
2019-05-16T23:03:18.448Z,92.00
2019-05-16T23:06:07.628Z,92.10
2019-05-16T23:08:56.200Z,92.20
2019-05-16T23:11:42.610Z,92.00
2019-05-16T23:14:29.848Z,91.70
2019-05-16T23:17:17.270Z,91.50
2019-05-16T23:20:06.357Z,91.60
2019-05-16T23:22:53.258Z,91.70
2019-05-16T23:25:40.663Z,91.90
2019-05-16T23:28:27.984Z,92.20
2019-05-16T23:31:16.662Z,92.10
2019-05-16T23:34:03.948Z,92.10
2019-05-16T23:36:51.319Z,92.20
2019-05-16T23:39:38.823Z,92.30
2019-05-16T23:42:26.390Z,91.90
2019-05-16T23:45:14.176Z,91.90
2019-05-16T23:48:01.044Z,92.10
2019-05-16T23:50:48.017Z,92.10
2019-05-16T23:53:37.145Z,92.00
2019-05-16T23:56:27.148Z,92.20
2019-05-16T23:59:13.499Z,92.30
